sensor_id;sensor_type;location;lat;lon;timestamp;pressure;altitude;pressure_sealevel;temperature;humidity
12987;BME280;58897;51.960;5.582;2022-12-11T00:01:23;100879.88;;;0.10;100.00
12987;BME280;58897;51.960;5.582;2022-12-11T00:03:50;100880.31;;;0.16;100.00
12987;BME280;58897;51.960;5.582;2022-12-11T00:06:20;100885.19;;;0.10;100.00
12987;BME280;58897;51.960;5.582;2022-12-11T00:08:50;100881.38;;;0.14;100.00
12987;BME280;58897;51.960;5.582;2022-12-11T00:11:16;100888.97;;;0.20;100.00
12987;BME280;58897;51.960;5.582;2022-12-11T00:13:43;100885.44;;;0.19;100.00
12987;BME280;58897;51.960;5.582;2022-12-11T00:16:10;100890.50;;;0.10;100.00
12987;BME280;58897;51.960;5.582;2022-12-11T00:18:36;100893.72;;;0.15;100.00
12987;BME280;58897;51.960;5.582;2022-12-11T00:21:06;100896.56;;;0.12;100.00
12987;BME280;58897;51.960;5.582;2022-12-11T00:23:36;100890.56;;;0.22;100.00
12987;BME280;58897;51.960;5.582;2022-12-11T00:26:12;100889.25;;;0.15;100.00
12987;BME280;58897;51.960;5.582;2022-12-11T00:28:40;100881.94;;;0.19;100.00
12987;BME280;58897;51.960;5.582;2022-12-11T00:31:08;100877.22;;;0.10;100.00
12987;BME280;58897;51.960;5.582;2022-12-11T00:33:35;100877.78;;;0.15;100.00
12987;BME280;58897;51.960;5.582;2022-12-11T00:36:01;100879.69;;;0.13;100.00
12987;BME280;58897;51.960;5.582;2022-12-11T00:38:28;100881.28;;;0.15;100.00
12987;BME280;58897;51.960;5.582;2022-12-11T00:40:58;100885.16;;;0.24;100.00
12987;BME280;58897;51.960;5.582;2022-12-11T00:43:25;100878.44;;;0.18;100.00
12987;BME280;58897;51.960;5.582;2022-12-11T00:45:51;100876.53;;;0.20;100.00
12987;BME280;58897;51.960;5.582;2022-12-11T00:48:18;100874.25;;;0.28;100.00
12987;BME280;58897;51.960;5.582;2022-12-11T00:50:45;100872.16;;;0.19;100.00
12987;BME280;58897;51.960;5.582;2022-12-11T00:53:11;100864.56;;;0.27;100.00
12987;BME280;58897;51.960;5.582;2022-12-11T00:55:39;100871.03;;;0.23;100.00
12987;BME280;58897;51.960;5.582;2022-12-11T00:58:06;100866.47;;;0.25;100.00
12987;BME280;58897;51.960;5.582;2022-12-11T01:00:33;100867.50;;;0.23;100.00
12987;BME280;58897;51.960;5.582;2022-12-11T01:03:00;100866.09;;;0.17;100.00
12987;BME280;58897;51.960;5.582;2022-12-11T01:05:27;100857.63;;;0.25;100.00
12987;BME280;58897;51.960;5.582;2022-12-11T01:07:53;100850.91;;;0.19;100.00
12987;BME280;58897;51.960;5.582;2022-12-11T01:10:20;100859.06;;;0.30;100.00
12987;BME280;58897;51.960;5.582;2022-12-11T01:15:21;100859.72;;;0.20;100.00
12987;BME280;58897;51.960;5.582;2022-12-11T01:17:49;100847.13;;;0.23;100.00
12987;BME280;58897;51.960;5.582;2022-12-11T01:20:17;100844.09;;;0.15;100.00
12987;BME280;58897;51.960;5.582;2022-12-11T01:22:44;100851.22;;;0.15;100.00
12987;BME280;58897;51.960;5.582;2022-12-11T01:25:11;100854.31;;;0.21;100.00
12987;BME280;58897;51.960;5.582;2022-12-11T01:27:38;100848.63;;;0.13;100.00
12987;BME280;58897;51.960;5.582;2022-12-11T01:30:06;100852.94;;;0.16;100.00
12987;BME280;58897;51.960;5.582;2022-12-11T01:32:34;100848.06;;;0.22;100.00
12987;BME280;58897;51.960;5.582;2022-12-11T01:35:05;100849.97;;;0.20;100.00
12987;BME280;58897;51.960;5.582;2022-12-11T01:37:33;100847.69;;;0.14;100.00
12987;BME280;58897;51.960;5.582;2022-12-11T01:40:00;100855.16;;;0.22;100.00
12987;BME280;58897;51.960;5.582;2022-12-11T01:42:27;100845.78;;;0.16;100.00
12987;BME280;58897;51.960;5.582;2022-12-11T01:47:42;100858.88;;;0.19;100.00
12987;BME280;58897;51.960;5.582;2022-12-11T01:50:10;100855.91;;;0.24;100.00
12987;BME280;58897;51.960;5.582;2022-12-11T01:52:36;100860.78;;;0.17;100.00
12987;BME280;58897;51.960;5.582;2022-12-11T01:55:03;100852.81;;;0.17;100.00
12987;BME280;58897;51.960;5.582;2022-12-11T01:57:30;100853.19;;;0.25;100.00
12987;BME280;58897;51.960;5.582;2022-12-11T01:59:56;100846.34;;;0.21;100.00
12987;BME280;58897;51.960;5.582;2022-12-11T02:02:28;100854.31;;;0.21;100.00
12987;BME280;58897;51.960;5.582;2022-12-11T02:04:56;100854.72;;;0.15;100.00
12987;BME280;58897;51.960;5.582;2022-12-11T02:07:23;100850.91;;;0.19;100.00
12987;BME280;58897;51.960;5.582;2022-12-11T02:09:50;100852.63;;;0.20;100.00
12987;BME280;58897;51.960;5.582;2022-12-11T02:12:30;100852.22;;;0.26;100.00
12987;BME280;58897;51.960;5.582;2022-12-11T02:15:07;100853.69;;;0.18;100.00
12987;BME280;58897;51.960;5.582;2022-12-11T02:20:37;100854.41;;;0.34;100.00
12987;BME280;58897;51.960;5.582;2022-12-11T02:26:00;100849.91;;;0.34;100.00
12987;BME280;58897;51.960;5.582;2022-12-11T02:31:34;100838.25;;;0.37;100.00
12987;BME280;58897;51.960;5.582;2022-12-11T02:34:17;100837.00;;;0.42;100.00
12987;BME280;58897;51.960;5.582;2022-12-11T02:36:50;100843.28;;;0.41;100.00
12987;BME280;58897;51.960;5.582;2022-12-11T02:39:19;100836.13;;;0.42;100.00
12987;BME280;58897;51.960;5.582;2022-12-11T02:41:50;100835.59;;;0.37;100.00
12987;BME280;58897;51.960;5.582;2022-12-11T02:44:21;100832.09;;;0.36;100.00
12987;BME280;58897;51.960;5.582;2022-12-11T02:46:49;100836.91;;;0.44;100.00
12987;BME280;58897;51.960;5.582;2022-12-11T02:49:16;100830.81;;;0.42;100.00
12987;BME280;58897;51.960;5.582;2022-12-11T02:51:44;100840.50;;;0.43;100.00
12987;BME280;58897;51.960;5.582;2022-12-11T02:54:13;100838.72;;;0.43;100.00
12987;BME280;58897;51.960;5.582;2022-12-11T02:56:50;100834.34;;;0.42;100.00
12987;BME280;58897;51.960;5.582;2022-12-11T02:59:27;100831.00;;;0.53;100.00
12987;BME280;58897;51.960;5.582;2022-12-11T03:01:56;100828.94;;;0.44;100.00
12987;BME280;58897;51.960;5.582;2022-12-11T03:04:23;100830.63;;;0.45;100.00
12987;BME280;58897;51.960;5.582;2022-12-11T03:06:53;100831.41;;;0.47;100.00
12987;BME280;58897;51.960;5.582;2022-12-11T03:09:21;100818.66;;;0.52;100.00
12987;BME280;58897;51.960;5.582;2022-12-11T03:11:48;100818.94;;;0.47;100.00
12987;BME280;58897;51.960;5.582;2022-12-11T03:14:14;100816.84;;;0.52;100.00
12987;BME280;58897;51.960;5.582;2022-12-11T03:16:50;100815.66;;;0.44;100.00
12987;BME280;58897;51.960;5.582;2022-12-11T03:19:35;100813.19;;;0.41;100.00
12987;BME280;58897;51.960;5.582;2022-12-11T03:22:09;100813.44;;;0.50;100.00
12987;BME280;58897;51.960;5.582;2022-12-11T03:24:40;100811.63;;;0.51;100.00
12987;BME280;58897;51.960;5.582;2022-12-11T03:27:33;100811.09;;;0.46;100.00
12987;BME280;58897;51.960;5.582;2022-12-11T03:30:08;100811.75;;;0.49;100.00
12987;BME280;58897;51.960;5.582;2022-12-11T03:32:43;100813.34;;;0.52;100.00
12987;BME280;58897;51.960;5.582;2022-12-11T03:35:18;100819.41;;;0.54;100.00
12987;BME280;58897;51.960;5.582;2022-12-11T03:37:47;100807.19;;;0.51;100.00
12987;BME280;58897;51.960;5.582;2022-12-11T03:40:18;100819.50;;;0.52;100.00
12987;BME280;58897;51.960;5.582;2022-12-11T03:42:48;100822.94;;;0.54;100.00
12987;BME280;58897;51.960;5.582;2022-12-11T03:45:18;100817.63;;;0.54;100.00
12987;BME280;58897;51.960;5.582;2022-12-11T03:47:46;100822.06;;;0.54;100.00
12987;BME280;58897;51.960;5.582;2022-12-11T03:50:15;100815.78;;;0.55;100.00
12987;BME280;58897;51.960;5.582;2022-12-11T03:52:44;100813.03;;;0.56;100.00
12987;BME280;58897;51.960;5.582;2022-12-11T03:55:13;100812.50;;;0.51;100.00
12987;BME280;58897;51.960;5.582;2022-12-11T03:57:41;100802.59;;;0.53;100.00
12987;BME280;58897;51.960;5.582;2022-12-11T04:00:17;100807.53;;;0.59;100.00
12987;BME280;58897;51.960;5.582;2022-12-11T04:02:44;100800.38;;;0.60;100.00
12987;BME280;58897;51.960;5.582;2022-12-11T04:05:46;100812.38;;;0.53;100.00
12987;BME280;58897;51.960;5.582;2022-12-11T04:08:14;100814.66;;;0.59;100.00
12987;BME280;58897;51.960;5.582;2022-12-11T04:10:41;100805.69;;;0.60;100.00
12987;BME280;58897;51.960;5.582;2022-12-11T04:13:09;100805.63;;;0.61;100.00
12987;BME280;58897;51.960;5.582;2022-12-11T04:15:37;100807.97;;;0.66;100.00
12987;BME280;58897;51.960;5.582;2022-12-11T04:18:04;100812.72;;;0.61;100.00
12987;BME280;58897;51.960;5.582;2022-12-11T04:20:53;100812.94;;;0.58;100.00
12987;BME280;58897;51.960;5.582;2022-12-11T04:23:38;100809.72;;;0.53;100.00
12987;BME280;58897;51.960;5.582;2022-12-11T04:26:23;100805.50;;;0.63;100.00
12987;BME280;58897;51.960;5.582;2022-12-11T04:28:50;100800.59;;;0.57;100.00
12987;BME280;58897;51.960;5.582;2022-12-11T04:31:20;100794.97;;;0.61;100.00
12987;BME280;58897;51.960;5.582;2022-12-11T04:33:47;100795.72;;;0.63;100.00
12987;BME280;58897;51.960;5.582;2022-12-11T04:36:13;100792.13;;;0.65;100.00
12987;BME280;58897;51.960;5.582;2022-12-11T04:38:40;100797.31;;;0.66;100.00
12987;BME280;58897;51.960;5.582;2022-12-11T04:41:09;100788.50;;;0.66;100.00
12987;BME280;58897;51.960;5.582;2022-12-11T04:43:36;100788.41;;;0.67;100.00
12987;BME280;58897;51.960;5.582;2022-12-11T04:48:31;100787.16;;;0.73;100.00
12987;BME280;58897;51.960;5.582;2022-12-11T04:50:58;100786.81;;;0.65;100.00
12987;BME280;58897;51.960;5.582;2022-12-11T04:53:25;100785.72;;;0.54;100.00
12987;BME280;58897;51.960;5.582;2022-12-11T04:55:51;100787.31;;;0.57;100.00
12987;BME280;58897;51.960;5.582;2022-12-11T04:58:18;100787.41;;;0.55;100.00
12987;BME280;58897;51.960;5.582;2022-12-11T05:00:44;100787.88;;;0.62;100.00
12987;BME280;58897;51.960;5.582;2022-12-11T05:03:11;100787.44;;;0.68;100.00
12987;BME280;58897;51.960;5.582;2022-12-11T05:05:38;100790.53;;;0.62;100.00
12987;BME280;58897;51.960;5.582;2022-12-11T05:08:05;100790.97;;;0.69;100.00
12987;BME280;58897;51.960;5.582;2022-12-11T05:10:31;100795.66;;;0.65;100.00
12987;BME280;58897;51.960;5.582;2022-12-11T05:12:58;100795.06;;;0.60;100.00
12987;BME280;58897;51.960;5.582;2022-12-11T05:15:24;100794.25;;;0.59;100.00
12987;BME280;58897;51.960;5.582;2022-12-11T05:17:50;100800.69;;;0.55;100.00
12987;BME280;58897;51.960;5.582;2022-12-11T05:20:17;100789.13;;;0.56;100.00
12987;BME280;58897;51.960;5.582;2022-12-11T05:22:43;100797.94;;;0.57;100.00
12987;BME280;58897;51.960;5.582;2022-12-11T05:25:10;100787.09;;;0.60;100.00
12987;BME280;58897;51.960;5.582;2022-12-11T05:27:38;100781.22;;;0.55;100.00
12987;BME280;58897;51.960;5.582;2022-12-11T05:30:05;100789.31;;;0.53;100.00
12987;BME280;58897;51.960;5.582;2022-12-11T05:32:31;100787.41;;;0.55;100.00
12987;BME280;58897;51.960;5.582;2022-12-11T05:34:58;100790.97;;;0.69;100.00
12987;BME280;58897;51.960;5.582;2022-12-11T05:37:24;100791.47;;;0.61;100.00
12987;BME280;58897;51.960;5.582;2022-12-11T05:39:51;100792.53;;;0.58;100.00
12987;BME280;58897;51.960;5.582;2022-12-11T05:42:17;100787.31;;;0.57;100.00
12987;BME280;58897;51.960;5.582;2022-12-11T05:44:48;100795.13;;;0.46;100.00
12987;BME280;58897;51.960;5.582;2022-12-11T05:47:14;100796.00;;;0.46;100.00
12987;BME280;58897;51.960;5.582;2022-12-11T05:49:41;100787.59;;;0.52;100.00
12987;BME280;58897;51.960;5.582;2022-12-11T05:52:08;100782.00;;;0.57;100.00
12987;BME280;58897;51.960;5.582;2022-12-11T05:54:35;100778.19;;;0.61;100.00
12987;BME280;58897;51.960;5.582;2022-12-11T05:57:01;100778.41;;;0.71;100.00
12987;BME280;58897;51.960;5.582;2022-12-11T05:59:27;100774.66;;;0.60;100.00
12987;BME280;58897;51.960;5.582;2022-12-11T06:01:54;100772.13;;;0.59;100.00
12987;BME280;58897;51.960;5.582;2022-12-11T06:04:21;100776.72;;;0.70;100.00
12987;BME280;58897;51.960;5.582;2022-12-11T06:06:47;100782.81;;;0.57;100.00
12987;BME280;58897;51.960;5.582;2022-12-11T06:09:15;100774.13;;;0.55;100.00
12987;BME280;58897;51.960;5.582;2022-12-11T06:11:41;100779.22;;;0.58;100.00
12987;BME280;58897;51.960;5.582;2022-12-11T06:14:09;100777.44;;;0.59;100.00
12987;BME280;58897;51.960;5.582;2022-12-11T06:16:36;100776.81;;;0.68;100.00
12987;BME280;58897;51.960;5.582;2022-12-11T06:19:03;100775.13;;;0.67;100.00
12987;BME280;58897;51.960;5.582;2022-12-11T06:21:30;100778.72;;;0.66;100.00
12987;BME280;58897;51.960;5.582;2022-12-11T06:24:00;100780.09;;;0.59;100.00
12987;BME280;58897;51.960;5.582;2022-12-11T06:26:28;100783.06;;;0.54;100.00
12987;BME280;58897;51.960;5.582;2022-12-11T06:28:54;100785.41;;;0.59;100.00
12987;BME280;58897;51.960;5.582;2022-12-11T06:31:21;100783.28;;;0.64;100.00
12987;BME280;58897;51.960;5.582;2022-12-11T06:33:48;100793.25;;;0.60;100.00
12987;BME280;58897;51.960;5.582;2022-12-11T06:36:19;100791.06;;;0.67;100.00
12987;BME280;58897;51.960;5.582;2022-12-11T06:38:47;100795.72;;;0.63;100.00
12987;BME280;58897;51.960;5.582;2022-12-11T06:41:14;100801.75;;;0.53;100.00
12987;BME280;58897;51.960;5.582;2022-12-11T06:43:41;100796.91;;;0.59;100.00
12987;BME280;58897;51.960;5.582;2022-12-11T06:46:11;100796.69;;;0.63;100.00
12987;BME280;58897;51.960;5.582;2022-12-11T06:48:38;100789.66;;;0.61;100.00
12987;BME280;58897;51.960;5.582;2022-12-11T06:51:06;100785.41;;;0.59;100.00
12987;BME280;58897;51.960;5.582;2022-12-11T06:53:34;100798.91;;;0.56;100.00
12987;BME280;58897;51.960;5.582;2022-12-11T06:56:05;100799.19;;;0.51;100.00
12987;BME280;58897;51.960;5.582;2022-12-11T06:58:36;100797.94;;;0.57;100.00
12987;BME280;58897;51.960;5.582;2022-12-11T07:01:03;100796.84;;;0.47;100.00
12987;BME280;58897;51.960;5.582;2022-12-11T07:03:30;100804.81;;;0.47;100.00
12987;BME280;58897;51.960;5.582;2022-12-11T07:06:00;100804.06;;;0.45;100.00
12987;BME280;58897;51.960;5.582;2022-12-11T07:08:27;100810.69;;;0.52;100.00
12987;BME280;58897;51.960;5.582;2022-12-11T07:10:54;100799.78;;;0.42;100.00
12987;BME280;58897;51.960;5.582;2022-12-11T07:13:20;100808.13;;;0.50;100.00
12987;BME280;58897;51.960;5.582;2022-12-11T07:15:47;100804.94;;;0.58;100.00
12987;BME280;58897;51.960;5.582;2022-12-11T07:18:13;100804.31;;;0.54;100.00
12987;BME280;58897;51.960;5.582;2022-12-11T07:20:40;100805.56;;;0.49;100.00
12987;BME280;58897;51.960;5.582;2022-12-11T07:23:06;100801.94;;;0.50;100.00
12987;BME280;58897;51.960;5.582;2022-12-11T07:25:33;100805.72;;;0.33;100.00
12987;BME280;58897;51.960;5.582;2022-12-11T07:27:59;100806.16;;;0.40;100.00
12987;BME280;58897;51.960;5.582;2022-12-11T07:30:25;100809.84;;;0.51;100.00
12987;BME280;58897;51.960;5.582;2022-12-11T07:32:52;100813.53;;;0.49;100.00
12987;BME280;58897;51.960;5.582;2022-12-11T07:35:18;100815.09;;;0.39;100.00
12987;BME280;58897;51.960;5.582;2022-12-11T07:37:45;100808.47;;;0.32;100.00
12987;BME280;58897;51.960;5.582;2022-12-11T07:40:11;100808.66;;;0.29;100.00
12987;BME280;58897;51.960;5.582;2022-12-11T07:42:39;100810.75;;;0.24;100.00
12987;BME280;58897;51.960;5.582;2022-12-11T07:45:11;100806.56;;;0.34;100.00
12987;BME280;58897;51.960;5.582;2022-12-11T07:47:38;100811.59;;;0.38;100.00
12987;BME280;58897;51.960;5.582;2022-12-11T07:50:05;100814.31;;;0.37;100.00
12987;BME280;58897;51.960;5.582;2022-12-11T07:52:32;100814.06;;;0.41;100.00
12987;BME280;58897;51.960;5.582;2022-12-11T07:54:59;100822.41;;;0.35;100.00
12987;BME280;58897;51.960;5.582;2022-12-11T07:57:26;100823.34;;;0.34;100.00
12987;BME280;58897;51.960;5.582;2022-12-11T07:59:53;100825.94;;;0.36;100.00
12987;BME280;58897;51.960;5.582;2022-12-11T08:02:20;100822.72;;;0.17;100.00
12987;BME280;58897;51.960;5.582;2022-12-11T08:04:47;100829.47;;;0.22;100.00
12987;BME280;58897;51.960;5.582;2022-12-11T08:07:15;100825.66;;;0.26;100.00
12987;BME280;58897;51.960;5.582;2022-12-11T08:09:41;100829.28;;;0.25;100.00
12987;BME280;58897;51.960;5.582;2022-12-11T08:12:08;100827.00;;;0.19;100.00
12987;BME280;58897;51.960;5.582;2022-12-11T08:14:34;100828.22;;;0.28;100.00
12987;BME280;58897;51.960;5.582;2022-12-11T08:17:00;100817.97;;;0.22;100.00
12987;BME280;58897;51.960;5.582;2022-12-11T08:19:27;100820.13;;;0.29;100.00
12987;BME280;58897;51.960;5.582;2022-12-11T08:21:54;100823.41;;;0.20;100.00
12987;BME280;58897;51.960;5.582;2022-12-11T08:24:20;100815.50;;;0.33;100.00
12987;BME280;58897;51.960;5.582;2022-12-11T08:26:47;100816.59;;;0.43;100.00
12987;BME280;58897;51.960;5.582;2022-12-11T08:29:14;100821.59;;;0.47;100.00
12987;BME280;58897;51.960;5.582;2022-12-11T08:31:41;100816.28;;;0.47;100.00
12987;BME280;58897;51.960;5.582;2022-12-11T08:34:07;100818.81;;;0.36;100.00
12987;BME280;58897;51.960;5.582;2022-12-11T08:36:34;100814.28;;;0.51;100.00
12987;BME280;58897;51.960;5.582;2022-12-11T08:39:00;100800.97;;;0.38;100.00
12987;BME280;58897;51.960;5.582;2022-12-11T08:41:28;100803.09;;;0.46;100.00
12987;BME280;58897;51.960;5.582;2022-12-11T08:43:56;100801.84;;;0.51;100.00
12987;BME280;58897;51.960;5.582;2022-12-11T08:46:26;100804.00;;;0.59;100.00
12987;BME280;58897;51.960;5.582;2022-12-11T08:48:53;100801.75;;;0.53;100.00
12987;BME280;58897;51.960;5.582;2022-12-11T08:51:22;100798.34;;;0.51;100.00
12987;BME280;58897;51.960;5.582;2022-12-11T08:53:49;100800.50;;;0.58;100.00
12987;BME280;58897;51.960;5.582;2022-12-11T08:56:18;100795.66;;;0.65;100.00
12987;BME280;58897;51.960;5.582;2022-12-11T08:58:45;100794.81;;;0.77;100.00
12987;BME280;58897;51.960;5.582;2022-12-11T09:01:15;100789.50;;;0.77;100.00
12987;BME280;58897;51.960;5.582;2022-12-11T09:03:43;100793.75;;;0.80;100.00
12987;BME280;58897;51.960;5.582;2022-12-11T09:06:12;100795.88;;;0.75;100.00
12987;BME280;58897;51.960;5.582;2022-12-11T09:08:40;100794.91;;;0.76;100.00
12987;BME280;58897;51.960;5.582;2022-12-11T09:11:12;100800.88;;;0.79;100.00
12987;BME280;58897;51.960;5.582;2022-12-11T09:13:40;100797.28;;;0.80;100.00
12987;BME280;58897;51.960;5.582;2022-12-11T09:16:13;100796.41;;;0.80;100.00
12987;BME280;58897;51.960;5.582;2022-12-11T09:18:41;100794.63;;;0.80;100.00
12987;BME280;58897;51.960;5.582;2022-12-11T09:21:10;100789.09;;;0.83;100.00
12987;BME280;58897;51.960;5.582;2022-12-11T09:23:39;100792.81;;;0.81;100.00
12987;BME280;58897;51.960;5.582;2022-12-11T09:26:07;100797.16;;;0.82;100.00
12987;BME280;58897;51.960;5.582;2022-12-11T09:28:33;100789.81;;;0.73;100.00
12987;BME280;58897;51.960;5.582;2022-12-11T09:31:00;100791.31;;;0.89;100.00
12987;BME280;58897;51.960;5.582;2022-12-11T09:33:26;100795.91;;;0.87;100.00
12987;BME280;58897;51.960;5.582;2022-12-11T09:36:00;100789.72;;;0.87;100.00
12987;BME280;58897;51.960;5.582;2022-12-11T09:38:28;100792.63;;;0.96;100.00
12987;BME280;58897;51.960;5.582;2022-12-11T09:40:55;100794.50;;;0.82;100.00
12987;BME280;58897;51.960;5.582;2022-12-11T09:43:32;100793.25;;;0.87;100.00
12987;BME280;58897;51.960;5.582;2022-12-11T09:46:06;100796.97;;;0.85;100.00
12987;BME280;58897;51.960;5.582;2022-12-11T09:48:37;100795.25;;;0.84;100.00
12987;BME280;58897;51.960;5.582;2022-12-11T09:51:14;100787.50;;;0.81;100.00
12987;BME280;58897;51.960;5.582;2022-12-11T09:53:44;100790.97;;;0.81;100.00
12987;BME280;58897;51.960;5.582;2022-12-11T09:59:01;100781.00;;;0.85;100.00
12987;BME280;58897;51.960;5.582;2022-12-11T10:01:54;100782.91;;;0.83;100.00
12987;BME280;58897;51.960;5.582;2022-12-11T10:04:31;100782.72;;;0.86;100.00
12987;BME280;58897;51.960;5.582;2022-12-11T10:07:22;100779.81;;;0.89;100.00
12987;BME280;58897;51.960;5.582;2022-12-11T10:12:51;100775.28;;;0.91;100.00
12987;BME280;58897;51.960;5.582;2022-12-11T10:15:48;100782.09;;;0.95;100.00
12987;BME280;58897;51.960;5.582;2022-12-11T10:18:13;100787.75;;;1.03;100.00
12987;BME280;58897;51.960;5.582;2022-12-11T10:20:41;100778.69;;;0.93;100.00
12987;BME280;58897;51.960;5.582;2022-12-11T10:23:18;100781.75;;;0.99;100.00
12987;BME280;58897;51.960;5.582;2022-12-11T10:26:06;100779.66;;;1.04;100.00
12987;BME280;58897;51.960;5.582;2022-12-11T10:28:34;100779.63;;;0.92;100.00
12987;BME280;58897;51.960;5.582;2022-12-11T10:34:02;100770.19;;;1.00;100.00
12987;BME280;58897;51.960;5.582;2022-12-11T10:36:31;100773.59;;;1.02;100.00
12987;BME280;58897;51.960;5.582;2022-12-11T10:38:59;100769.84;;;0.92;100.00
12987;BME280;58897;51.960;5.582;2022-12-11T10:41:37;100764.22;;;0.97;100.00
12987;BME280;58897;51.960;5.582;2022-12-11T10:44:15;100760.06;;;0.93;100.00
12987;BME280;58897;51.960;5.582;2022-12-11T10:46:43;100766.34;;;1.04;100.00
12987;BME280;58897;51.960;5.582;2022-12-11T10:49:43;100759.75;;;1.10;100.00
12987;BME280;58897;51.960;5.582;2022-12-11T10:52:23;100756.88;;;1.13;100.00
12987;BME280;58897;51.960;5.582;2022-12-11T10:57:53;100759.88;;;0.96;100.00
12987;BME280;58897;51.960;5.582;2022-12-11T11:02:53;100755.06;;;1.01;100.00
12987;BME280;58897;51.960;5.582;2022-12-11T11:08:20;100756.34;;;0.95;100.00
12987;BME280;58897;51.960;5.582;2022-12-11T11:10:56;100752.94;;;0.93;100.00
12987;BME280;58897;51.960;5.582;2022-12-11T11:13:25;100757.63;;;1.02;100.00
12987;BME280;58897;51.960;5.582;2022-12-11T11:16:06;100747.84;;;1.03;100.00
12987;BME280;58897;51.960;5.582;2022-12-11T11:18:38;100740.38;;;0.95;100.00
12987;BME280;58897;51.960;5.582;2022-12-11T11:21:15;100730.81;;;1.18;100.00
12987;BME280;58897;51.960;5.582;2022-12-11T11:23:41;100728.28;;;1.16;100.00
12987;BME280;58897;51.960;5.582;2022-12-11T11:26:16;100739.31;;;1.10;100.00
12987;BME280;58897;51.960;5.582;2022-12-11T11:28:52;100742.50;;;1.03;100.00
12987;BME280;58897;51.960;5.582;2022-12-11T11:31:21;100737.31;;;1.01;100.00
12987;BME280;58897;51.960;5.582;2022-12-11T11:34:05;100745.19;;;1.03;100.00
12987;BME280;58897;51.960;5.582;2022-12-11T11:36:35;100733.78;;;1.01;100.00
12987;BME280;58897;51.960;5.582;2022-12-11T11:39:17;100734.66;;;1.01;100.00
12987;BME280;58897;51.960;5.582;2022-12-11T11:42:12;100736.97;;;0.93;100.00
12987;BME280;58897;51.960;5.582;2022-12-11T11:45:02;100747.50;;;0.95;100.00
12987;BME280;58897;51.960;5.582;2022-12-11T11:47:47;100734.22;;;0.95;100.00
12987;BME280;58897;51.960;5.582;2022-12-11T11:50:23;100734.75;;;1.00;100.00
12987;BME280;58897;51.960;5.582;2022-12-11T11:52:57;100724.44;;;0.95;100.00
12987;BME280;58897;51.960;5.582;2022-12-11T11:55:48;100729.88;;;0.94;100.00
12987;BME280;58897;51.960;5.582;2022-12-11T11:58:27;100725.63;;;1.04;100.00
12987;BME280;58897;51.960;5.582;2022-12-11T12:00:56;100726.56;;;1.03;100.00
12987;BME280;58897;51.960;5.582;2022-12-11T12:03:23;100721.66;;;0.97;100.00
12987;BME280;58897;51.960;5.582;2022-12-11T12:06:01;100729.53;;;0.98;100.00
12987;BME280;58897;51.960;5.582;2022-12-11T12:11:20;100726.75;;;0.87;100.00
12987;BME280;58897;51.960;5.582;2022-12-11T12:21:50;100721.88;;;1.06;100.00
12987;BME280;58897;51.960;5.582;2022-12-11T12:24:28;100720.69;;;1.10;100.00
12987;BME280;58897;51.960;5.582;2022-12-11T12:27:41;100721.88;;;1.19;100.00
12987;BME280;58897;51.960;5.582;2022-12-11T12:30:19;100717.63;;;1.04;100.00
12987;BME280;58897;51.960;5.582;2022-12-11T12:35:33;100703.47;;;1.03;100.00
12987;BME280;58897;51.960;5.582;2022-12-11T12:38:20;100702.63;;;0.90;100.00
12987;BME280;58897;51.960;5.582;2022-12-11T12:41:19;100700.06;;;1.01;100.00
12987;BME280;58897;51.960;5.582;2022-12-11T12:44:11;100700.81;;;1.03;100.00
12987;BME280;58897;51.960;5.582;2022-12-11T12:46:48;100704.00;;;1.08;100.00
12987;BME280;58897;51.960;5.582;2022-12-11T12:51:56;100700.69;;;1.05;100.00
12987;BME280;58897;51.960;5.582;2022-12-11T12:54:26;100704.63;;;0.99;100.00
12987;BME280;58897;51.960;5.582;2022-12-11T12:56:55;100699.09;;;1.02;100.00
12987;BME280;58897;51.960;5.582;2022-12-11T12:59:25;100701.66;;;1.04;100.00
12987;BME280;58897;51.960;5.582;2022-12-11T13:01:57;100712.41;;;1.02;100.00
12987;BME280;58897;51.960;5.582;2022-12-11T13:04:38;100701.47;;;1.07;100.00
12987;BME280;58897;51.960;5.582;2022-12-11T13:07:26;100703.25;;;1.06;100.00
12987;BME280;58897;51.960;5.582;2022-12-11T13:12:45;100699.34;;;1.12;100.00
12987;BME280;58897;51.960;5.582;2022-12-11T13:15:37;100705.06;;;1.06;100.00
12987;BME280;58897;51.960;5.582;2022-12-11T13:18:44;100708.91;;;1.14;100.00
12987;BME280;58897;51.960;5.582;2022-12-11T13:21:32;100706.78;;;1.07;100.00
12987;BME280;58897;51.960;5.582;2022-12-11T13:26:38;100704.13;;;1.07;100.00
12987;BME280;58897;51.960;5.582;2022-12-11T13:29:25;100706.66;;;0.96;100.00
12987;BME280;58897;51.960;5.582;2022-12-11T13:31:57;100704.00;;;0.83;100.00
12987;BME280;58897;51.960;5.582;2022-12-11T13:34:27;100714.41;;;0.86;100.00
12987;BME280;58897;51.960;5.582;2022-12-11T13:36:56;100710.19;;;0.96;100.00
12987;BME280;58897;51.960;5.582;2022-12-11T13:39:29;100711.88;;;1.10;100.00
12987;BME280;58897;51.960;5.582;2022-12-11T13:42:07;100712.53;;;1.01;100.00
12987;BME280;58897;51.960;5.582;2022-12-11T13:44:47;100715.72;;;1.06;100.00
12987;BME280;58897;51.960;5.582;2022-12-11T13:47:16;100723.28;;;1.12;100.00
12987;BME280;58897;51.960;5.582;2022-12-11T13:49:47;100721.78;;;1.08;100.00
12987;BME280;58897;51.960;5.582;2022-12-11T13:52:18;100721.34;;;1.01;100.00
12987;BME280;58897;51.960;5.582;2022-12-11T13:54:50;100723.03;;;1.02;100.00
12987;BME280;58897;51.960;5.582;2022-12-11T13:57:21;100721.88;;;1.06;100.00
12987;BME280;58897;51.960;5.582;2022-12-11T13:59:51;100719.31;;;1.05;100.00
12987;BME280;58897;51.960;5.582;2022-12-11T14:04:53;100723.78;;;0.92;100.00
12987;BME280;58897;51.960;5.582;2022-12-11T14:07:27;100725.81;;;1.01;100.00